Time;durP1;ratioP1;P1;durP2;ratioP2;P2;SDS_P1;SDS_P2;PMS_P1;PMS_P2;Temp;Humidity;BMP_temperature;BMP_pressure;BME280_temperature;BME280_humidity;BME280_pressure;Samples;Min_cycle;Max_cycle;Signal;HPM_P1;HPM_P2
2023/04/22 00:00:53;;;;;;;;;;;;;;;26.58;41.18;93619.59;4952166;28;8994;-62
2023/04/22 00:03:40;;;;;;;;;;;;;;;26.59;40.88;93601.78;4939058;28;7074;-62
2023/04/22 00:06:27;;;;;;;;;;;;;;;26.59;40.62;93604.53;4971184;28;9402;-62
2023/04/22 00:08:53;;;;;;;;;;;;;;;26.59;41.38;93604.53;4957889;28;9227;-62
2023/04/22 00:11:32;;;;;;;;;;;;;;;26.58;40.87;93602.31;4964904;28;9437;-62
2023/04/22 00:14:18;;;;;;;;;;;;;;;26.58;41.25;93602.31;4960288;28;7150;-62
2023/04/22 00:17:17;;;;;;;;;;;;;;;26.57;40.96;93598.81;4956254;28;9439;-62
2023/04/22 00:20:00;;;;;;;;;;;;;;;26.55;41.00;93584.84;4913004;29;7272;-62
2023/04/22 00:23:02;;;;;;;;;;;;;;;26.59;41.08;93590.00;4933956;29;9564;-62
2023/04/22 00:25:33;;;;;;;;;;;;;;;26.56;40.87;93583.53;4897833;29;9110;-61
2023/04/22 00:28:00;;;;;;;;;;;;;;;26.56;41.31;93580.03;4897491;29;7247;-62
2023/04/22 00:31:04;;;;;;;;;;;;;;;26.58;40.94;93585.75;4896730;29;8449;-62
2023/04/22 00:33:48;;;;;;;;;;;;;;;26.59;40.89;93576.97;4862728;29;9007;-62
2023/04/22 00:36:15;;;;;;;;;;;;;;;26.55;41.39;93579.31;4873190;29;8667;-62
2023/04/22 00:39:06;;;;;;;;;;;;;;;26.56;40.85;93575.25;4878363;29;7042;-62
2023/04/22 00:41:34;;;;;;;;;;;;;;;26.54;40.84;93568.81;4877461;29;7694;-62
2023/04/22 00:44:17;;;;;;;;;;;;;;;26.55;40.55;93579.31;4859246;29;7241;-62
2023/04/22 00:47:02;;;;;;;;;;;;;;;26.55;41.41;93582.06;4875190;29;7479;-62
2023/04/22 00:49:35;;;;;;;;;;;;;;;26.56;41.46;93582.78;4877267;29;7152;-62
2023/04/22 00:52:17;;;;;;;;;;;;;;;26.55;40.82;93584.09;4853140;29;8961;-62
2023/04/22 00:54:43;;;;;;;;;;;;;;;26.57;40.78;93585.03;4846737;29;8203;-62
2023/04/22 00:57:32;;;;;;;;;;;;;;;26.55;40.96;93584.09;4926960;29;9064;-62
2023/04/22 01:00:26;;;;;;;;;;;;;;;26.53;41.15;93584.63;4923158;28;9476;-62
2023/04/22 01:02:57;;;;;;;;;;;;;;;26.55;41.52;93593.09;4950093;28;7052;-62
2023/04/22 01:05:35;;;;;;;;;;;;;;;26.54;41.15;93585.34;4965392;28;7131;-62
2023/04/22 01:08:20;;;;;;;;;;;;;;;26.54;40.90;93579.84;4996940;28;7470;-62
2023/04/22 01:11:02;;;;;;;;;;;;;;;26.58;41.29;93581.00;5028655;28;9154;-62
2023/04/22 01:13:37;;;;;;;;;;;;;;;26.61;41.00;93579.19;5022970;28;7264;-62
2023/04/22 01:16:09;;;;;;;;;;;;;;;26.61;41.07;93568.88;5053758;28;9004;-62
2023/04/22 01:18:48;;;;;;;;;;;;;;;26.63;40.48;93563.56;5032700;28;9013;-62
2023/04/22 01:21:15;;;;;;;;;;;;;;;26.65;40.93;93560.28;5032517;28;8972;-62
2023/04/22 01:23:51;;;;;;;;;;;;;;;26.64;40.84;93572.59;5065729;28;9143;-62
2023/04/22 01:26:35;;;;;;;;;;;;;;;26.65;40.75;93574.81;5032844;28;7164;-62
2023/04/22 01:29:15;;;;;;;;;;;;;;;26.64;40.84;93578.13;5031868;28;7603;-62
2023/04/22 01:31:43;;;;;;;;;;;;;;;26.62;40.71;93584.16;5032675;28;7116;-62
2023/04/22 01:34:18;;;;;;;;;;;;;;;26.63;40.77;93582.13;5032773;28;7203;-62
2023/04/22 01:36:50;;;;;;;;;;;;;;;26.62;40.95;93580.66;5032648;28;7211;-62
2023/04/22 01:39:17;;;;;;;;;;;;;;;26.64;40.49;93578.84;5041192;28;8838;-63
2023/04/22 01:41:55;;;;;;;;;;;;;;;26.64;40.39;93580.88;5032257;28;9493;-62
2023/04/22 01:44:24;;;;;;;;;;;;;;;26.60;40.91;93585.97;5035924;28;9172;-62
2023/04/22 01:46:52;;;;;;;;;;;;;;;26.62;40.59;93578.63;5041562;28;9013;-62
2023/04/22 01:49:27;;;;;;;;;;;;;;;26.61;40.70;93579.19;5048943;28;7247;-62
2023/04/22 01:52:08;;;;;;;;;;;;;;;26.60;41.07;93574.94;5032560;28;7363;-62
2023/04/22 01:54:35;;;;;;;;;;;;;;;26.59;41.20;93587.25;5029953;28;7133;-62
2023/04/22 01:57:13;;;;;;;;;;;;;;;26.61;40.61;93582.69;5017923;28;7296;-62
2023/04/22 01:59:39;;;;;;;;;;;;;;;26.63;40.53;93582.13;5032560;28;7449;-62
2023/04/22 02:02:08;;;;;;;;;;;;;;;26.62;41.05;93597.94;5022074;28;8120;-62
2023/04/22 02:05:00;;;;;;;;;;;;;;;26.64;40.34;93594.66;5014693;28;7347;-62
2023/04/22 02:07:41;;;;;;;;;;;;;;;26.62;41.30;93594.47;5033273;28;9290;-62
2023/04/22 02:10:10;;;;;;;;;;;;;;;26.59;40.96;93590.00;5049465;28;9125;-62
2023/04/22 02:13:07;;;;;;;;;;;;;;;26.58;40.93;93591.28;5069631;28;9047;-62
2023/04/22 02:15:43;;;;;;;;;;;;;;;26.54;41.10;93586.09;5014771;28;7008;-62
2023/04/22 02:18:18;;;;;;;;;;;;;;;26.53;40.75;93594.91;5015799;28;8677;-62
2023/04/22 02:21:33;;;;;;;;;;;;;;;26.51;40.94;93595.44;4982876;28;8892;-62
2023/04/22 02:24:03;;;;;;;;;;;;;;;26.48;40.95;93598.53;4940485;28;7510;-62
2023/04/22 02:26:31;;;;;;;;;;;;;;;26.46;40.88;93596.31;4940496;28;9039;-62
2023/04/22 02:28:57;;;;;;;;;;;;;;;26.45;40.80;93596.84;4951695;28;7232;-61
2023/04/22 02:31:28;;;;;;;;;;;;;;;26.47;40.67;93597.06;4922440;29;7687;-62
2023/04/22 02:33:54;;;;;;;;;;;;;;;26.46;40.36;93599.06;4935692;29;7074;-62
2023/04/22 02:36:22;;;;;;;;;;;;;;;26.45;40.59;93603.09;4928078;28;9482;-62
2023/04/22 02:38:58;;;;;;;;;;;;;;;26.45;41.02;93596.84;4955095;28;8980;-62
2023/04/22 02:41:43;;;;;;;;;;;;;;;26.45;41.11;93594.06;4940265;28;7161;-62
2023/04/22 02:44:39;;;;;;;;;;;;;;;26.46;41.09;93598.31;4956633;28;9514;-62
2023/04/22 02:47:24;;;;;;;;;;;;;;;26.46;41.31;93593.56;4899324;29;7037;-62
2023/04/22 02:49:50;;;;;;;;;;;;;;;26.45;41.33;93599.59;4913469;29;9025;-62
2023/04/22 02:52:17;;;;;;;;;;;;;;;26.43;40.91;93596.63;4909717;29;7014;-62
2023/04/22 02:54:43;;;;;;;;;;;;;;;26.43;40.76;93596.63;4908433;29;7266;-62
2023/04/22 02:57:09;;;;;;;;;;;;;;;26.44;41.45;93593.34;4923998;29;7271;-61
2023/04/22 02:59:56;;;;;;;;;;;;;;;26.43;41.31;93602.88;4939191;28;9196;-62
2023/04/22 03:02:39;;;;;;;;;;;;;;;26.43;40.74;93610.41;4993470;28;7743;-62
2023/04/22 03:05:08;;;;;;;;;;;;;;;26.42;41.31;93608.94;4978216;28;7235;-62
2023/04/22 03:07:37;;;;;;;;;;;;;;;26.42;41.30;93611.69;4978580;28;9040;-62
2023/04/22 03:10:08;;;;;;;;;;;;;;;26.43;41.02;93610.41;4976648;28;7114;-62
2023/04/22 03:12:34;;;;;;;;;;;;;;;26.42;40.80;93609.69;4963108;28;9166;-62
2023/04/22 03:15:06;;;;;;;;;;;;;;;26.38;40.53;93603.03;5005604;28;8750;-62
2023/04/22 03:17:32;;;;;;;;;;;;;;;26.45;40.93;93616.88;4975850;28;7211;-62
2023/04/22 03:20:05;;;;;;;;;;;;;;;26.43;40.87;93610.41;4993038;28;7258;-61
2023/04/22 03:22:33;;;;;;;;;;;;;;;26.42;41.07;93614.47;4979928;28;9074;-61
2023/04/22 03:25:06;;;;;;;;;;;;;;;26.44;40.99;93611.91;5032558;28;9442;-62
2023/04/22 03:27:32;;;;;;;;;;;;;;;26.45;41.14;93616.13;5032678;28;8583;-62
2023/04/22 03:30:01;;;;;;;;;;;;;;;26.40;41.47;93606.72;5025697;28;9162;-62
2023/04/22 03:32:27;;;;;;;;;;;;;;;26.42;41.37;93608.94;5017767;28;8969;-62
2023/04/22 03:34:55;;;;;;;;;;;;;;;26.44;41.05;93615.41;5044320;28;9413;-62
2023/04/22 03:37:21;;;;;;;;;;;;;;;26.44;40.64;93611.91;5033476;28;9053;-62
2023/04/22 03:39:47;;;;;;;;;;;;;;;26.42;40.58;93612.44;5033293;28;7272;-62
2023/04/22 03:42:14;;;;;;;;;;;;;;;26.44;40.69;93618.16;5049642;28;6975;-62
2023/04/22 03:44:40;;;;;;;;;;;;;;;26.45;41.26;93616.88;5032804;28;7106;-62
2023/04/22 03:47:06;;;;;;;;;;;;;;;26.45;40.49;93618.88;5019863;28;7206;-62
2023/04/22 03:49:34;;;;;;;;;;;;;;;26.45;40.51;93627.16;5013938;28;6941;-62
2023/04/22 03:52:00;;;;;;;;;;;;;;;26.42;41.14;93620.72;5012749;28;9380;-62
2023/04/22 03:54:27;;;;;;;;;;;;;;;26.45;40.55;93632.69;5061072;28;7027;-62
2023/04/22 03:56:55;;;;;;;;;;;;;;;26.44;40.58;93631.97;5048981;28;7247;-61
2023/04/22 03:59:21;;;;;;;;;;;;;;;26.45;40.98;93629.91;5030818;28;8017;-62
2023/04/22 04:01:53;;;;;;;;;;;;;;;26.43;40.92;93624.19;5032374;28;8735;-62
2023/04/22 04:04:22;;;;;;;;;;;;;;;26.43;40.74;93632.47;5065931;28;7302;-62
2023/04/22 04:06:54;;;;;;;;;;;;;;;26.43;41.03;93635.22;5033683;28;9052;-62
2023/04/22 04:09:34;;;;;;;;;;;;;;;26.39;40.89;93632.06;5034278;28;7246;-62
2023/04/22 04:12:10;;;;;;;;;;;;;;;26.39;41.53;93641.09;5033926;28;7272;-62
2023/04/22 04:14:46;;;;;;;;;;;;;;;26.40;41.70;93639.81;5035069;28;7055;-62
2023/04/22 04:17:29;;;;;;;;;;;;;;;26.38;40.75;93639.59;5020143;28;9094;-62
2023/04/22 04:20:09;;;;;;;;;;;;;;;26.40;41.29;93650.84;5031826;28;7131;-62
2023/04/22 04:22:36;;;;;;;;;;;;;;;26.39;40.65;93654.13;5031933;28;7240;-62
2023/04/22 04:25:07;;;;;;;;;;;;;;;26.38;41.00;93644.38;5020141;28;7150;-62
2023/04/22 04:27:34;;;;;;;;;;;;;;;26.39;40.62;93645.84;5031111;28;9142;-62
2023/04/22 04:29:59;;;;;;;;;;;;;;;26.39;40.70;93640.34;5032344;28;9266;-62
2023/04/22 04:32:28;;;;;;;;;;;;;;;26.39;41.46;93645.84;5048265;28;8614;-62
2023/04/22 04:34:53;;;;;;;;;;;;;;;26.38;40.76;93649.91;5048901;28;7226;-62
2023/04/22 04:37:21;;;;;;;;;;;;;;;26.36;41.21;93647.66;5031798;28;7060;-63
2023/04/22 04:39:47;;;;;;;;;;;;;;;26.37;41.50;93651.16;5031180;28;9319;-62
2023/04/22 04:42:19;;;;;;;;;;;;;;;26.32;41.59;93652.75;5032336;28;7001;-62
2023/04/22 04:45:05;;;;;;;;;;;;;;;26.35;40.99;93643.44;5033303;28;7017;-62
2023/04/22 04:47:53;;;;;;;;;;;;;;;26.34;41.56;93643.97;5027537;28;7298;-62
2023/04/22 04:50:26;;;;;;;;;;;;;;;26.34;41.18;93636.41;5041466;28;9064;-62
2023/04/22 04:52:55;;;;;;;;;;;;;;;26.32;40.98;93641.00;5032465;28;7301;-62
2023/04/22 04:55:29;;;;;;;;;;;;;;;26.30;41.22;93654.56;5033596;28;7439;-62
2023/04/22 04:57:56;;;;;;;;;;;;;;;26.27;41.16;93645.38;5029085;28;7284;-62
2023/04/22 05:00:31;;;;;;;;;;;;;;;26.28;41.32;93657.09;5039715;28;7182;-62
2023/04/22 05:03:07;;;;;;;;;;;;;;;26.25;41.33;93666.47;5049976;28;8707;-62
2023/04/22 05:06:03;;;;;;;;;;;;;;;26.30;41.26;93655.31;5048445;28;9059;-62
2023/04/22 05:08:51;;;;;;;;;;;;;;;26.29;41.68;93656.59;4969693;28;7232;-61
2023/04/22 05:11:17;;;;;;;;;;;;;;;26.27;42.08;93655.66;4954935;28;7541;-62
2023/04/22 05:13:52;;;;;;;;;;;;;;;26.27;41.54;93653.63;4966333;28;7597;-61
2023/04/22 05:16:29;;;;;;;;;;;;;;;26.25;41.57;93666.47;4972467;28;7072;-61
2023/04/22 05:19:09;;;;;;;;;;;;;;;26.26;41.23;93665.19;4969770;28;7231;-61
2023/04/22 05:21:45;;;;;;;;;;;;;;;26.25;41.44;93658.94;4953749;28;7060;-61
2023/04/22 05:24:13;;;;;;;;;;;;;;;26.29;41.00;93659.34;4969257;28;8759;-61
2023/04/22 05:26:53;;;;;;;;;;;;;;;26.27;41.72;93674.94;4957273;28;8671;-62
2023/04/22 05:29:21;;;;;;;;;;;;;;;26.25;42.02;93674.72;4971506;28;9796;-62
2023/04/22 05:32:21;;;;;;;;;;;;;;;26.27;41.04;93680.44;4955213;28;7027;-62
2023/04/22 05:34:57;;;;;;;;;;;;;;;26.24;41.24;93664.97;4973185;28;7052;-62
2023/04/22 05:38:02;;;;;;;;;;;;;;;26.28;41.78;93663.38;4969476;28;7321;-62
2023/04/22 05:41:13;;;;;;;;;;;;;;;26.25;41.95;93669.97;4939962;28;7209;-62
2023/04/22 05:43:41;;;;;;;;;;;;;;;26.25;41.67;93669.22;4900110;29;9009;-62
2023/04/22 05:46:12;;;;;;;;;;;;;;;26.24;41.67;93678.75;4927564;29;8737;-62
2023/04/22 05:48:47;;;;;;;;;;;;;;;26.22;41.76;93670.28;4922099;29;7215;-62
2023/04/22 05:51:27;;;;;;;;;;;;;;;26.25;41.16;93669.22;4922500;29;9339;-61
2023/04/22 05:54:04;;;;;;;;;;;;;;;26.30;41.70;93671.09;4937655;29;7175;-61
2023/04/22 05:56:30;;;;;;;;;;;;;;;26.30;41.44;93682.13;4937736;29;7174;-61
2023/04/22 05:58:56;;;;;;;;;;;;;;;26.32;41.12;93679.59;4937219;29;7128;-61
2023/04/22 06:01:31;;;;;;;;;;;;;;;26.29;40.98;93681.41;4936064;29;7487;-62
2023/04/22 06:03:57;;;;;;;;;;;;;;;26.23;40.72;93682.78;4933747;29;9381;-62
2023/04/22 06:06:24;;;;;;;;;;;;;;;26.25;40.85;93680.25;4923867;29;7338;-62
2023/04/22 06:08:59;;;;;;;;;;;;;;;26.24;40.71;93679.50;4936486;29;8205;-62
2023/04/22 06:11:31;;;;;;;;;;;;;;;26.30;40.83;93684.88;4962392;28;7258;-62
2023/04/22 06:13:56;;;;;;;;;;;;;;;26.30;40.92;93684.88;4972133;28;8755;-63
2023/04/22 06:16:33;;;;;;;;;;;;;;;26.31;41.13;93681.63;4975774;28;8692;-62
2023/04/22 06:18:59;;;;;;;;;;;;;;;26.34;41.01;93677.06;4959897;28;9221;-61
2023/04/22 06:21:27;;;;;;;;;;;;;;;26.36;41.21;93691.06;5028558;28;7280;-62
2023/04/22 06:24:00;;;;;;;;;;;;;;;26.38;40.75;93683.69;5052870;28;7237;-62
2023/04/22 06:26:27;;;;;;;;;;;;;;;26.37;40.92;93678.72;5056763;28;8684;-61
2023/04/22 06:28:53;;;;;;;;;;;;;;;26.40;41.30;93685.94;5032941;28;8179;-61
2023/04/22 06:31:31;;;;;;;;;;;;;;;26.41;40.93;93687.41;5034921;28;7014;-63
2023/04/22 06:33:59;;;;;;;;;;;;;;;26.41;40.76;93690.19;5040138;28;9673;-62
2023/04/22 06:36:26;;;;;;;;;;;;;;;26.44;40.41;93686.34;5060148;28;7314;-61
2023/04/22 06:39:06;;;;;;;;;;;;;;;26.43;41.20;93690.38;5031175;28;7461;-63
2023/04/22 06:41:33;;;;;;;;;;;;;;;26.39;40.93;93698.25;5041822;28;7339;-62
2023/04/22 06:44:08;;;;;;;;;;;;;;;26.35;41.24;93706.09;5033537;28;9040;-62
2023/04/22 06:47:25;;;;;;;;;;;;;;;26.38;40.89;93696.78;5022815;28;7617;-62
2023/04/22 06:49:58;;;;;;;;;;;;;;;26.42;40.76;93699.94;5029834;28;9082;-63
2023/04/22 06:52:24;;;;;;;;;;;;;;;26.40;41.14;93696.97;5033368;28;8962;-63
2023/04/22 06:54:50;;;;;;;;;;;;;;;26.40;40.60;93694.97;5031648;28;7276;-63
2023/04/22 06:57:20;;;;;;;;;;;;;;;26.43;41.07;93696.66;5035150;28;7327;-63
2023/04/22 06:59:56;;;;;;;;;;;;;;;26.45;40.89;93702.38;5035411;28;7268;-63
2023/04/22 07:02:30;;;;;;;;;;;;;;;26.43;41.19;93695.91;5035886;28;6868;-63
2023/04/22 07:04:56;;;;;;;;;;;;;;;26.44;40.95;93700.16;5038573;28;9013;-63
2023/04/22 07:07:28;;;;;;;;;;;;;;;26.44;41.16;93703.66;5055387;28;7650;-63
2023/04/22 07:09:54;;;;;;;;;;;;;;;26.46;41.43;93706.63;5036234;28;7244;-63
2023/04/22 07:12:25;;;;;;;;;;;;;;;26.46;40.88;93705.88;5038749;28;7014;-62
2023/04/22 07:14:55;;;;;;;;;;;;;;;26.50;40.69;93700.78;5033566;28;7052;-62
2023/04/22 07:17:23;;;;;;;;;;;;;;;26.48;41.10;93704.06;5034080;28;7191;-62
2023/04/22 07:19:54;;;;;;;;;;;;;;;26.53;41.58;93705.22;5035639;28;7271;-62
2023/04/22 07:22:22;;;;;;;;;;;;;;;26.48;40.82;93703.31;5060289;28;7250;-62
2023/04/22 07:24:55;;;;;;;;;;;;;;;26.50;41.21;93703.53;5033061;28;8936;-63
2023/04/22 07:27:24;;;;;;;;;;;;;;;26.50;41.53;93709.78;5025509;28;9061;-64
2023/04/22 07:29:57;;;;;;;;;;;;;;;26.50;40.70;93701.50;5025093;28;7681;-63
2023/04/22 07:32:25;;;;;;;;;;;;;;;26.48;40.91;93709.59;5032517;28;9436;-64
2023/04/22 07:34:53;;;;;;;;;;;;;;;26.41;41.23;93701.94;5028263;28;7163;-64
2023/04/22 07:37:20;;;;;;;;;;;;;;;26.45;41.42;93710.63;5027767;28;9061;-63
2023/04/22 07:39:47;;;;;;;;;;;;;;;26.47;41.17;93707.38;5044568;28;9146;-63
2023/04/22 07:42:21;;;;;;;;;;;;;;;26.48;41.16;93709.59;5028182;28;7253;-63
2023/04/22 07:44:47;;;;;;;;;;;;;;;26.47;40.99;93708.09;5034923;28;7072;-64
2023/04/22 07:47:45;;;;;;;;;;;;;;;26.51;40.77;93710.53;5034346;28;9423;-64
2023/04/22 07:50:14;;;;;;;;;;;;;;;26.51;40.58;93705.03;5030412;28;9314;-63
2023/04/22 07:52:46;;;;;;;;;;;;;;;26.49;41.10;93716.56;5031119;28;8331;-64
2023/04/22 07:55:15;;;;;;;;;;;;;;;26.50;41.17;93717.31;5042137;28;7029;-64
2023/04/22 07:57:50;;;;;;;;;;;;;;;26.47;40.95;93710.13;5063771;28;7127;-64
2023/04/22 08:00:18;;;;;;;;;;;;;;;26.50;40.92;93722.84;5023783;28;8973;-64
2023/04/22 08:02:46;;;;;;;;;;;;;;;26.51;40.82;93722.28;5029872;28;8973;-63
2023/04/22 08:05:12;;;;;;;;;;;;;;;26.48;40.49;93725.38;5049398;28;8978;-63
2023/04/22 08:07:45;;;;;;;;;;;;;;;26.47;40.72;93723.91;5045630;28;8441;-64
2023/04/22 08:10:20;;;;;;;;;;;;;;;26.46;41.24;93716.91;5034496;28;9029;-63
2023/04/22 08:12:46;;;;;;;;;;;;;;;26.44;40.94;93724.97;5057421;28;7179;-63
2023/04/22 08:15:16;;;;;;;;;;;;;;;26.44;41.47;93727.72;5060975;28;9058;-64
2023/04/22 08:17:43;;;;;;;;;;;;;;;26.41;41.04;93728.78;5030248;28;9165;-63
2023/04/22 08:20:20;;;;;;;;;;;;;;;26.39;41.63;93731.31;5037502;28;9186;-63
2023/04/22 08:22:50;;;;;;;;;;;;;;;26.40;41.77;93730.06;5047528;28;8797;-63
2023/04/22 08:25:46;;;;;;;;;;;;;;;26.41;41.76;93726.75;5017913;28;8767;-63
2023/04/22 08:28:28;;;;;;;;;;;;;;;26.41;41.12;93726.03;4968924;28;7247;-64
2023/04/22 08:31:01;;;;;;;;;;;;;;;26.41;41.29;93726.75;4971318;28;7468;-64
2023/04/22 08:33:42;;;;;;;;;;;;;;;26.42;41.10;93728.25;4961143;28;6923;-64
2023/04/22 08:36:24;;;;;;;;;;;;;;;26.41;41.77;93715.75;4955666;28;9230;-63
2023/04/22 08:39:27;;;;;;;;;;;;;;;26.45;41.74;93721.66;4969343;28;7250;-63
2023/04/22 08:42:07;;;;;;;;;;;;;;;26.44;41.17;93722.22;4910456;29;9039;-63
2023/04/22 08:44:47;;;;;;;;;;;;;;;26.40;41.52;93721.78;4916955;29;9319;-63
2023/04/22 08:47:27;;;;;;;;;;;;;;;26.38;41.78;93718.81;4921864;29;9468;-63
2023/04/22 08:50:28;;;;;;;;;;;;;;;26.37;42.17;93725.59;4925721;29;9035;-63
2023/04/22 08:53:04;;;;;;;;;;;;;;;26.37;41.51;93723.59;4837577;29;7333;-63
2023/04/22 08:55:59;;;;;;;;;;;;;;;26.40;41.68;93722.53;4840858;29;8996;-64
2023/04/22 08:58:28;;;;;;;;;;;;;;;26.42;41.68;93717.22;4786717;29;9064;-63
2023/04/22 09:01:27;;;;;;;;;;;;;;;26.42;41.76;93722.75;4789143;29;9071;-64
2023/04/22 09:03:58;;;;;;;;;;;;;;;26.44;41.97;93719.44;4797543;29;7615;-63
2023/04/22 09:06:55;;;;;;;;;;;;;;;26.48;41.69;93717.84;4822829;29;8743;-63
2023/04/22 09:09:23;;;;;;;;;;;;;;;26.54;41.15;93720.47;4817869;29;9134;-63
2023/04/22 09:11:51;;;;;;;;;;;;;;;26.53;41.32;93705.22;4795485;29;8185;-64
2023/04/22 09:14:20;;;;;;;;;;;;;;;26.57;40.53;93702.88;4804908;29;9623;-63
2023/04/22 09:16:47;;;;;;;;;;;;;;;26.57;41.27;93695.34;4822186;29;9062;-63
2023/04/22 09:19:55;;;;;;;;;;;;;;;26.61;41.21;93690.25;4840308;29;8918;-64
2023/04/22 09:22:21;;;;;;;;;;;;;;;26.61;40.37;93689.50;4840565;29;7237;-63
2023/04/22 09:24:59;;;;;;;;;;;;;;;26.62;40.54;93691.00;4856310;29;7044;-64
2023/04/22 09:27:36;;;;;;;;;;;;;;;26.65;40.38;93676.88;4844162;29;8971;-63
2023/04/22 09:30:26;;;;;;;;;;;;;;;26.71;40.35;93676.72;4858142;29;7135;-63
2023/04/22 09:33:06;;;;;;;;;;;;;;;26.74;40.84;93681.97;4867745;29;7062;-63
2023/04/22 09:35:48;;;;;;;;;;;;;;;26.74;40.06;93673.69;4900737;29;7259;-64
2023/04/22 09:38:15;;;;;;;;;;;;;;;26.74;40.71;93667.44;4913519;29;9611;-63
2023/04/22 09:41:11;;;;;;;;;;;;;;;26.77;40.05;93669.84;4911672;29;7130;-63
2023/04/22 09:43:45;;;;;;;;;;;;;;;26.76;40.51;93670.38;4892267;29;7019;-63
2023/04/22 09:46:30;;;;;;;;;;;;;;;26.78;40.50;93670.59;4943614;28;8722;-64
2023/04/22 09:48:58;;;;;;;;;;;;;;;26.80;40.81;93668.03;4954491;28;7048;-63
2023/04/22 09:51:31;;;;;;;;;;;;;;;26.77;40.58;93664.31;4951096;28;7116;-63
2023/04/22 09:54:08;;;;;;;;;;;;;;;26.80;40.34;93662.53;4964589;28;9852;-62
2023/04/22 09:56:45;;;;;;;;;;;;;;;26.80;40.27;93665.28;4957889;28;9056;-64
2023/04/22 09:59:11;;;;;;;;;;;;;;;26.79;40.48;93661.81;4963282;28;7038;-63
2023/04/22 10:01:41;;;;;;;;;;;;;;;26.81;40.40;93655.75;4957699;28;7058;-63
2023/04/22 10:04:27;;;;;;;;;;;;;;;26.83;40.17;93661.47;4972394;28;7260;-63
2023/04/22 10:06:55;;;;;;;;;;;;;;;26.84;40.64;93660.16;4991824;28;8629;-64
2023/04/22 10:09:23;;;;;;;;;;;;;;;26.86;40.31;93669.41;4991717;28;7276;-64
2023/04/22 10:12:18;;;;;;;;;;;;;;;26.86;40.09;93672.16;4992029;28;9009;-63
2023/04/22 10:14:46;;;;;;;;;;;;;;;26.87;40.30;93672.91;4930724;29;9833;-63
2023/04/22 10:17:18;;;;;;;;;;;;;;;26.86;40.56;93661.13;4899664;29;9094;-63
2023/04/22 10:20:02;;;;;;;;;;;;;;;26.85;40.78;93658.91;4911639;29;7235;-63
2023/04/22 10:22:55;;;;;;;;;;;;;;;26.90;39.87;93666.31;4934082;29;9104;-63
2023/04/22 10:25:38;;;;;;;;;;;;;;;26.89;39.59;93660.06;4934755;28;8868;-63
2023/04/22 10:28:42;;;;;;;;;;;;;;;26.92;39.80;93650.69;4935747;28;9023;-63
2023/04/22 10:31:24;;;;;;;;;;;;;;;26.91;39.94;93645.72;4883236;29;7225;-63
2023/04/22 10:34:09;;;;;;;;;;;;;;;26.92;40.37;93636.16;4916749;29;9070;-62
2023/04/22 10:37:05;;;;;;;;;;;;;;;26.90;40.12;93627.69;4916918;29;7009;-63
2023/04/22 10:39:32;;;;;;;;;;;;;;;26.92;39.75;93627.13;4899044;29;9121;-63
2023/04/22 10:42:01;;;;;;;;;;;;;;;26.90;39.99;93633.22;4913249;29;7268;-63
2023/04/22 10:44:45;;;;;;;;;;;;;;;26.90;39.75;93633.22;4912465;29;7297;-63
2023/04/22 10:47:29;;;;;;;;;;;;;;;26.88;39.77;93633.00;4915687;29;7053;-63
2023/04/22 10:50:20;;;;;;;;;;;;;;;26.89;39.80;93637.22;4913261;29;7030;-64
2023/04/22 10:52:55;;;;;;;;;;;;;;;26.89;39.66;93648.28;4948690;28;8615;-64
2023/04/22 10:55:50;;;;;;;;;;;;;;;26.87;39.57;93662.59;4943472;28;7153;-64
2023/04/22 10:58:23;;;;;;;;;;;;;;;26.87;39.75;93659.09;4947351;28;6988;-64
2023/04/22 11:01:14;;;;;;;;;;;;;;;26.88;40.09;93664.06;4937407;28;7456;-64
2023/04/22 11:03:55;;;;;;;;;;;;;;;26.89;39.92;93664.81;4934630;28;7317;-64
2023/04/22 11:06:26;;;;;;;;;;;;;;;26.87;39.55;93672.91;5033629;28;7068;-63
2023/04/22 11:09:07;;;;;;;;;;;;;;;26.85;39.66;93672.69;5033073;28;9028;-63
2023/04/22 11:11:33;;;;;;;;;;;;;;;26.87;39.62;93670.88;5031121;28;8977;-63
2023/04/22 11:14:11;;;;;;;;;;;;;;;26.90;40.05;93677.34;5047657;28;9014;-62
2023/04/22 11:16:45;;;;;;;;;;;;;;;26.88;40.01;93680.63;5035010;28;9622;-62
2023/04/22 11:19:14;;;;;;;;;;;;;;;26.87;39.85;93678.41;5033193;28;8832;-62
2023/04/22 11:21:53;;;;;;;;;;;;;;;26.89;39.92;93684.13;5032353;28;9036;-62
2023/04/22 11:24:26;;;;;;;;;;;;;;;26.89;39.42;93676.63;5030981;28;7359;-62
2023/04/22 11:27:06;;;;;;;;;;;;;;;26.92;40.27;93685.09;5029968;28;6927;-62
2023/04/22 11:29:33;;;;;;;;;;;;;;;26.92;39.97;93687.84;5030829;28;7038;-62
2023/04/22 11:32:10;;;;;;;;;;;;;;;26.95;39.50;93689.56;5032431;28;8686;-63
2023/04/22 11:34:52;;;;;;;;;;;;;;;26.96;39.61;93689.00;5032651;28;7199;-65
2023/04/22 11:37:22;;;;;;;;;;;;;;;26.96;39.84;93694.53;5061546;28;8253;-64
2023/04/22 11:39:52;;;;;;;;;;;;;;;26.97;39.64;93692.50;5034030;28;7268;-63
2023/04/22 11:42:36;;;;;;;;;;;;;;;26.99;39.82;93687.19;5032772;28;8993;-64
2023/04/22 11:45:12;;;;;;;;;;;;;;;26.99;39.71;93690.69;5029802;28;7046;-64
2023/04/22 11:47:40;;;;;;;;;;;;;;;27.02;39.38;93697.16;5029676;28;7339;-64
2023/04/22 11:50:11;;;;;;;;;;;;;;;27.04;39.58;93692.56;5031862;28;9169;-63
2023/04/22 11:53:20;;;;;;;;;;;;;;;27.05;39.24;93688.56;5021703;28;7503;-64
2023/04/22 11:55:50;;;;;;;;;;;;;;;27.05;38.93;93694.06;4952261;28;7582;-64
2023/04/22 11:58:29;;;;;;;;;;;;;;;27.05;39.26;93701.59;4966953;28;7104;-64
2023/04/22 12:00:58;;;;;;;;;;;;;;;27.04;39.09;93691.81;4952758;28;7323;-64
2023/04/22 12:03:26;;;;;;;;;;;;;;;27.06;39.25;93703.06;4953444;28;8717;-64
2023/04/22 12:06:07;;;;;;;;;;;;;;;27.05;38.86;93690.56;4951940;28;9020;-64
2023/04/22 12:08:38;;;;;;;;;;;;;;;27.06;39.23;93692.03;4960874;28;8687;-64
2023/04/22 12:11:33;;;;;;;;;;;;;;;27.09;39.08;93697.22;4969451;28;7116;-64
2023/04/22 12:14:10;;;;;;;;;;;;;;;27.11;39.08;93693.94;4961019;28;8460;-64
2023/04/22 12:16:41;;;;;;;;;;;;;;;27.10;39.24;93700.75;4936876;28;7242;-64
2023/04/22 12:19:10;;;;;;;;;;;;;;;27.11;39.01;93691.16;4950251;28;7250;-64
2023/04/22 12:21:40;;;;;;;;;;;;;;;27.09;39.09;93693.72;4933195;28;7283;-64
2023/04/22 12:24:10;;;;;;;;;;;;;;;27.10;39.25;93690.41;4945622;28;7450;-64
2023/04/22 12:26:39;;;;;;;;;;;;;;;27.10;39.40;93682.13;4933855;28;9028;-64
2023/04/22 12:29:32;;;;;;;;;;;;;;;27.11;39.23;93680.88;4948521;28;7268;-64
2023/04/22 12:32:00;;;;;;;;;;;;;;;27.09;39.06;93677.16;4965210;28;8613;-65
2023/04/22 12:34:56;;;;;;;;;;;;;;;27.11;39.08;93677.38;5011349;28;9508;-64
2023/04/22 12:38:08;;;;;;;;;;;;;;;27.10;38.91;93684.91;4915474;29;9062;-65
2023/04/22 12:40:42;;;;;;;;;;;;;;;27.12;39.31;93684.38;4877036;29;7492;-65
2023/04/22 12:43:08;;;;;;;;;;;;;;;27.10;38.73;93676.63;4859510;29;7090;-64
2023/04/22 12:45:43;;;;;;;;;;;;;;;27.17;39.18;93678.72;4875150;29;7243;-64
2023/04/22 12:48:11;;;;;;;;;;;;;;;27.18;39.28;93679.47;4857385;29;8563;-63
2023/04/22 12:50:46;;;;;;;;;;;;;;;27.20;39.01;93672.13;4858870;29;7027;-63
2023/04/22 12:53:15;;;;;;;;;;;;;;;27.24;39.03;93675.28;4862071;29;7047;-63
2023/04/22 12:56:00;;;;;;;;;;;;;;;27.24;39.28;93678.06;4861410;29;9158;-63
2023/04/22 12:59:01;;;;;;;;;;;;;;;27.26;39.39;93683.03;4861351;29;9561;-64
2023/04/22 13:01:29;;;;;;;;;;;;;;;27.26;39.38;93680.25;4839189;29;7295;-63
2023/04/22 13:04:14;;;;;;;;;;;;;;;27.23;39.45;93679.31;4822785;29;9113;-63
2023/04/22 13:06:41;;;;;;;;;;;;;;;27.27;38.73;93681.75;4850342;29;9385;-63
2023/04/22 13:09:40;;;;;;;;;;;;;;;27.30;39.34;93689.69;4855470;29;7071;-64
2023/04/22 13:12:17;;;;;;;;;;;;;;;27.31;39.10;93685.66;4787814;29;7209;-64
2023/04/22 13:14:43;;;;;;;;;;;;;;;27.30;39.17;93678.66;4819715;29;9048;-64
2023/04/22 13:17:20;;;;;;;;;;;;;;;27.32;39.12;93684.38;4863155;29;7375;-64
2023/04/22 13:19:56;;;;;;;;;;;;;;;27.29;39.26;93679.94;4896292;29;7196;-64
2023/04/22 13:22:40;;;;;;;;;;;;;;;27.29;39.27;93671.66;4927448;29;9055;-64
2023/04/22 13:25:25;;;;;;;;;;;;;;;27.28;39.34;93675.69;4914309;29;8767;-64
2023/04/22 13:28:01;;;;;;;;;;;;;;;27.28;38.82;93672.94;4911648;29;9212;-64
2023/04/22 13:30:29;;;;;;;;;;;;;;;27.27;39.42;93668.69;4911074;29;9017;-64
2023/04/22 13:32:55;;;;;;;;;;;;;;;27.26;38.85;93678.25;4905509;29;7144;-64
2023/04/22 13:35:35;;;;;;;;;;;;;;;27.27;38.51;93676.25;4898202;29;8886;-64
2023/04/22 13:38:07;;;;;;;;;;;;;;;27.25;38.57;93676.75;4927722;28;9003;-64
2023/04/22 13:40:36;;;;;;;;;;;;;;;27.25;38.93;93678.78;4986234;28;9026;-64
2023/04/22 13:43:04;;;;;;;;;;;;;;;27.25;38.87;93671.22;4954876;28;8652;-63